createdAt,value
2019-05-03T00:02:22.254Z,14.73
2019-05-03T00:04:59.359Z,14.33
2019-05-03T00:07:28.331Z,14.77
2019-05-03T00:09:57.165Z,14.23
2019-05-03T00:12:26.045Z,15.07
2019-05-03T00:14:56.447Z,14.67
2019-05-03T00:17:25.324Z,14.93
2019-05-03T00:19:54.159Z,14.83
2019-05-03T00:22:23.033Z,15.33
2019-05-03T00:25:03.959Z,15.63
2019-05-03T00:27:22.383Z,16.10
2019-05-03T00:29:52.407Z,15.73
2019-05-03T00:32:22.692Z,15.53
2019-05-03T00:34:53.135Z,15.53
2019-05-03T00:37:23.555Z,15.90
2019-05-03T00:40:05.257Z,15.73
2019-05-03T00:42:34.082Z,14.90
2019-05-03T00:45:03.051Z,15.53
2019-05-03T00:47:32.869Z,15.13
2019-05-03T00:50:02.840Z,15.17
2019-05-03T00:52:32.024Z,15.43
2019-05-03T00:55:02.390Z,14.37
2019-05-03T00:57:32.563Z,15.37
2019-05-03T01:00:02.126Z,14.40
2019-05-03T01:02:31.861Z,15.13
2019-05-03T01:05:02.859Z,14.87
2019-05-03T01:07:31.932Z,14.57
2019-05-03T01:10:02.634Z,15.20
2019-05-03T01:12:32.412Z,14.70
2019-05-03T01:15:03.375Z,15.57
2019-05-03T01:17:32.715Z,15.37
2019-05-03T01:20:02.866Z,16.07
2019-05-03T01:22:32.199Z,15.37
2019-05-03T01:25:03.078Z,15.43
2019-05-03T01:27:32.570Z,15.47
2019-05-03T01:30:02.857Z,15.53
2019-05-03T01:32:32.892Z,15.27
2019-05-03T01:35:03.128Z,15.93
2019-05-03T01:37:32.394Z,15.53
2019-05-03T01:40:02.239Z,15.77
2019-05-03T01:42:32.093Z,16.20
2019-05-03T01:45:01.814Z,15.80
2019-05-03T01:47:38.222Z,16.27
2019-05-03T01:50:26.783Z,15.20
2019-05-03T01:53:06.248Z,15.23
2019-05-03T01:55:53.535Z,15.97
2019-05-03T01:58:23.374Z,16.93
2019-05-03T02:00:57.387Z,16.10
2019-05-03T02:03:43.986Z,15.93
2019-05-03T02:06:12.866Z,16.87
2019-05-03T02:08:41.885Z,16.43
2019-05-03T02:11:11.655Z,16.13
2019-05-03T02:13:42.651Z,15.87
2019-05-03T02:16:11.611Z,17.80
2019-05-03T02:18:42.282Z,16.93
2019-05-03T02:21:12.208Z,16.90
2019-05-03T02:23:42.523Z,16.50
2019-05-03T02:26:11.821Z,15.70
2019-05-03T02:28:42.135Z,17.50
2019-05-03T02:31:13.463Z,16.83
2019-05-03T02:33:43.404Z,16.63
2019-05-03T02:36:13.644Z,16.73
2019-05-03T02:38:43.172Z,18.17
2019-05-03T02:41:13.436Z,17.87
2019-05-03T02:43:49.989Z,17.13
2019-05-03T02:46:20.428Z,17.67
2019-05-03T02:48:56.627Z,18.03
2019-05-03T02:51:26.240Z,17.07
2019-05-03T02:53:57.064Z,16.90
2019-05-03T02:56:26.243Z,16.50
2019-05-03T02:58:55.963Z,18.47
2019-05-03T03:01:26.491Z,16.87
2019-05-03T03:03:56.654Z,16.83
2019-05-03T03:06:27.169Z,16.53
2019-05-03T03:08:58.641Z,18.00
2019-05-03T03:11:30.068Z,14.97
2019-05-03T03:14:00.040Z,16.37
2019-05-03T03:16:30.752Z,15.77
2019-05-03T03:19:02.560Z,15.67
2019-05-03T03:21:36.119Z,16.57
2019-05-03T03:24:12.748Z,17.13
2019-05-03T03:26:43.614Z,17.13
2019-05-03T03:29:16.088Z,16.47
2019-05-03T03:32:00.240Z,16.30
2019-05-03T03:34:39.165Z,16.67
2019-05-03T03:37:10.274Z,16.20
2019-05-03T03:39:40.082Z,16.30
2019-05-03T03:42:10.116Z,15.50
2019-05-03T03:44:39.192Z,15.77
2019-05-03T03:47:09.839Z,15.87
2019-05-03T03:49:40.670Z,15.03
2019-05-03T03:52:12.003Z,15.40
2019-05-03T03:54:45.747Z,15.17
2019-05-03T03:57:16.364Z,14.07
2019-05-03T03:59:45.629Z,14.83
2019-05-03T04:02:16.008Z,16.07
2019-05-03T04:04:45.657Z,15.57
2019-05-03T04:07:15.992Z,14.67
2019-05-03T04:09:45.837Z,14.87
2019-05-03T04:12:16.488Z,13.73
2019-05-03T04:14:56.231Z,15.00
2019-05-03T04:17:45.460Z,14.20
2019-05-03T04:20:16.286Z,14.50
2019-05-03T04:22:45.462Z,14.10
2019-05-03T04:25:15.717Z,14.57
2019-05-03T04:27:45.622Z,13.67
2019-05-03T04:30:16.458Z,13.97
2019-05-03T04:32:45.593Z,14.53
2019-05-03T04:35:16.479Z,14.13
2019-05-03T04:37:45.510Z,13.00
2019-05-03T04:40:15.560Z,13.17
2019-05-03T04:42:46.493Z,13.73
2019-05-03T04:45:16.481Z,14.27
2019-05-03T04:47:46.324Z,14.70
2019-05-03T04:50:16.282Z,13.57
2019-05-03T04:52:46.395Z,14.07
2019-05-03T04:55:16.144Z,13.97
2019-05-03T04:57:49.106Z,13.43
2019-05-03T05:00:16.217Z,13.60
2019-05-03T05:02:46.025Z,13.60
2019-05-03T05:05:15.526Z,13.50
2019-05-03T05:07:45.695Z,13.60
2019-05-03T05:10:15.457Z,13.17
2019-05-03T05:12:45.854Z,13.73
2019-05-03T05:15:26.878Z,11.93
2019-05-03T05:17:57.379Z,12.67
2019-05-03T05:20:30.783Z,13.33
2019-05-03T05:22:59.649Z,13.67
2019-05-03T05:25:30.095Z,13.07
2019-05-03T05:28:00.499Z,13.37
2019-05-03T05:30:29.775Z,12.90
2019-05-03T05:32:58.611Z,14.13
2019-05-03T05:35:27.479Z,13.27
2019-05-03T05:37:56.312Z,12.77
2019-05-03T05:40:25.285Z,13.30
2019-05-03T05:42:54.598Z,13.00
2019-05-03T05:45:24.595Z,12.97
2019-05-03T05:47:58.035Z,12.23
2019-05-03T05:50:34.677Z,11.97
2019-05-03T05:53:04.993Z,12.43
2019-05-03T05:55:52.038Z,12.33
2019-05-03T05:58:25.417Z,13.00
2019-05-03T06:01:05.542Z,11.97
2019-05-03T06:03:34.463Z,12.27
2019-05-03T06:06:15.303Z,12.83
2019-05-03T06:08:54.818Z,13.17
2019-05-03T06:11:42.089Z,12.73
2019-05-03T06:14:15.556Z,12.67
2019-05-03T06:16:51.972Z,12.53
2019-05-03T06:19:22.411Z,12.30
2019-05-03T06:21:55.579Z,12.70
2019-05-03T06:24:28.973Z,14.47
2019-05-03T06:26:59.429Z,13.93
2019-05-03T06:29:28.298Z,13.37
2019-05-03T06:32:15.356Z,13.53
2019-05-03T06:34:45.502Z,14.30
2019-05-03T06:37:16.071Z,13.47
2019-05-03T06:39:45.496Z,14.50
2019-05-03T06:42:16.044Z,13.80
2019-05-03T06:44:45.516Z,13.27
2019-05-03T06:47:14.917Z,13.17
2019-05-03T06:49:48.173Z,13.83
2019-05-03T06:52:14.820Z,13.90
2019-05-03T06:54:44.965Z,13.83
2019-05-03T06:57:15.588Z,14.57
2019-05-03T06:59:48.475Z,13.73
2019-05-03T07:02:25.126Z,14.23
2019-05-03T07:04:56.196Z,12.60
2019-05-03T07:07:32.827Z,12.97
2019-05-03T07:10:06.003Z,13.50
2019-05-03T07:12:54.691Z,14.80
2019-05-03T07:15:25.152Z,13.70
2019-05-03T07:17:55.618Z,14.53
2019-05-03T07:20:25.515Z,13.20
2019-05-03T07:22:55.902Z,13.97
2019-05-03T07:25:25.584Z,10.30
2019-05-03T07:27:55.567Z,8.37
2019-05-03T07:30:24.966Z,6.73
2019-05-03T07:32:55.782Z,5.80
2019-05-03T07:35:25.186Z,5.67
2019-05-03T07:37:55.377Z,4.90
2019-05-03T07:40:25.340Z,5.60
2019-05-03T07:42:55.454Z,5.60
2019-05-03T07:45:25.492Z,5.10
2019-05-03T07:47:55.789Z,5.20
2019-05-03T07:50:25.855Z,4.70
2019-05-03T07:52:55.602Z,5.00
2019-05-03T07:55:38.907Z,4.40
2019-05-03T07:58:09.344Z,4.10
2019-05-03T08:00:38.203Z,4.30
2019-05-03T08:03:07.044Z,4.27
2019-05-03T08:05:35.888Z,4.33
2019-05-03T08:08:04.846Z,4.23
2019-05-03T08:10:34.507Z,4.60
2019-05-03T08:13:04.697Z,5.00
2019-05-03T08:15:34.791Z,4.00
2019-05-03T08:18:04.836Z,4.27
2019-05-03T08:20:35.017Z,4.30
2019-05-03T08:23:05.289Z,4.10
2019-05-03T08:25:35.469Z,4.67
2019-05-03T08:28:06.443Z,4.63
2019-05-03T08:30:37.292Z,4.17
2019-05-03T08:33:08.087Z,4.50
2019-05-03T08:35:46.172Z,4.60
2019-05-03T08:38:19.760Z,4.73
2019-05-03T08:40:57.367Z,5.17
2019-05-03T08:43:26.371Z,5.17
2019-05-03T08:45:55.521Z,5.33
2019-05-03T08:48:25.093Z,5.50
2019-05-03T08:50:55.443Z,5.57
2019-05-03T08:53:25.596Z,5.63
2019-05-03T08:55:55.272Z,5.20
2019-05-03T08:58:25.599Z,5.23
2019-05-03T09:00:55.156Z,4.73
2019-05-03T09:03:24.930Z,4.50
2019-05-03T09:05:56.359Z,5.07
2019-05-03T09:08:24.981Z,4.20
2019-05-03T09:11:01.326Z,4.10
2019-05-03T09:13:32.017Z,3.90
2019-05-03T09:16:01.041Z,3.70
2019-05-03T09:18:29.972Z,3.37
2019-05-03T09:21:08.249Z,3.50
2019-05-03T09:23:37.294Z,4.13
2019-05-03T09:26:06.107Z,4.40
2019-05-03T09:28:35.189Z,4.00
2019-05-03T09:31:04.695Z,2.60
2019-05-03T09:33:35.534Z,2.73
2019-05-03T09:36:05.353Z,2.30
2019-05-03T09:38:35.030Z,2.03
2019-05-03T09:41:05.245Z,1.93
2019-05-03T09:43:35.691Z,1.90
2019-05-03T09:46:05.196Z,1.60
2019-05-03T09:48:34.726Z,1.83
2019-05-03T09:51:05.202Z,1.80
2019-05-03T09:53:47.639Z,2.00
2019-05-03T09:56:18.080Z,1.70
2019-05-03T09:58:46.938Z,1.50
2019-05-03T10:01:15.771Z,1.20
2019-05-03T10:03:45.201Z,1.13
2019-05-03T10:06:15.326Z,1.20
2019-05-03T10:08:45.442Z,1.20
2019-05-03T10:11:15.469Z,1.07
2019-05-03T10:13:48.258Z,1.40
2019-05-03T10:16:15.803Z,0.80
2019-05-03T10:18:45.954Z,0.80
2019-05-03T10:21:15.056Z,1.03
2019-05-03T10:23:45.169Z,1.10
2019-05-03T10:26:15.057Z,1.10
2019-05-03T10:28:44.112Z,0.93
2019-05-03T10:31:12.940Z,1.37
2019-05-03T10:33:49.536Z,1.10
2019-05-03T10:36:18.408Z,1.20
2019-05-03T10:38:47.244Z,1.10
2019-05-03T10:41:16.108Z,0.90
2019-05-03T10:43:45.339Z,0.80
2019-05-03T10:46:15.966Z,0.80
2019-05-03T10:48:45.284Z,1.20
2019-05-03T10:51:15.753Z,1.23
2019-05-03T10:53:46.527Z,1.00
2019-05-03T10:56:24.464Z,1.13
2019-05-03T10:58:54.790Z,1.10
2019-05-03T11:04:35.485Z,1.40
2019-05-03T11:07:05.536Z,1.00
2019-05-03T11:09:47.972Z,1.33
2019-05-03T11:12:05.460Z,1.40
2019-05-03T11:14:35.008Z,1.40
2019-05-03T11:17:05.671Z,1.30
2019-05-03T11:19:34.901Z,1.17
2019-05-03T11:22:05.405Z,1.13
2019-05-03T11:24:35.007Z,1.13
2019-05-03T11:27:05.484Z,1.07
2019-05-03T11:29:35.544Z,1.27
2019-05-03T11:32:09.052Z,1.00
2019-05-03T11:34:47.115Z,1.37
2019-05-03T11:37:17.550Z,1.60
2019-05-03T11:39:46.374Z,1.50
2019-05-03T11:42:16.198Z,1.50
2019-05-03T11:44:45.751Z,1.87
2019-05-03T11:47:15.109Z,1.33
2019-05-03T11:49:54.665Z,1.40
2019-05-03T11:52:25.686Z,1.47
2019-05-03T11:54:55.358Z,1.20
2019-05-03T11:57:28.091Z,1.30
2019-05-03T11:59:56.928Z,1.30
2019-05-03T12:02:27.365Z,1.20
2019-05-03T12:04:56.679Z,1.60
2019-05-03T12:07:39.666Z,1.60
2019-05-03T12:10:17.559Z,1.70
2019-05-03T12:12:39.070Z,1.50
2019-05-03T12:15:08.112Z,1.53
2019-05-03T12:17:52.001Z,1.43
2019-05-03T12:20:13.482Z,1.87
2019-05-03T12:22:43.298Z,1.80
2019-05-03T12:25:13.406Z,1.73
2019-05-03T12:27:44.495Z,1.63
2019-05-03T12:30:15.345Z,1.90
2019-05-03T12:32:44.361Z,1.80
2019-05-03T12:35:16.127Z,2.53
2019-05-03T12:37:45.009Z,1.73
2019-05-03T12:40:15.103Z,2.47
2019-05-03T12:42:45.514Z,1.97
2019-05-03T12:45:15.345Z,2.47
2019-05-03T12:47:45.351Z,2.07
2019-05-03T12:50:15.674Z,2.80
2019-05-03T12:52:50.378Z,2.23
2019-05-03T12:55:16.316Z,2.30
2019-05-03T12:57:45.795Z,2.80
2019-05-03T13:00:19.892Z,2.67
2019-05-03T13:02:54.971Z,3.30
2019-05-03T13:05:24.890Z,3.00
2019-05-03T13:08:11.528Z,2.70
2019-05-03T13:10:40.398Z,2.80
2019-05-03T13:13:09.212Z,2.13
2019-05-03T13:15:38.077Z,2.87
2019-05-03T13:18:06.904Z,2.57
2019-05-03T13:20:36.109Z,2.23
2019-05-03T13:23:05.506Z,2.50
2019-05-03T13:25:35.572Z,2.37
2019-05-03T13:28:05.505Z,2.40
2019-05-03T13:30:34.631Z,2.53
2019-05-03T13:33:05.662Z,2.07
2019-05-03T13:35:35.160Z,2.73
2019-05-03T13:38:04.209Z,2.60
2019-05-03T13:40:33.075Z,2.53
2019-05-03T13:43:04.455Z,2.77
2019-05-03T13:45:32.390Z,2.70
2019-05-03T13:48:01.256Z,3.60
2019-05-03T13:50:30.123Z,2.73
2019-05-03T13:52:58.962Z,2.47
2019-05-03T13:55:28.740Z,2.87
2019-05-03T13:57:57.612Z,3.10
2019-05-03T14:00:26.451Z,2.80
2019-05-03T14:02:56.330Z,2.37
2019-05-03T14:05:25.395Z,2.97
2019-05-03T14:07:56.191Z,2.70
2019-05-03T14:10:25.132Z,2.97
2019-05-03T14:12:54.840Z,2.67
2019-05-03T14:15:25.477Z,2.30
2019-05-03T14:17:54.773Z,2.63
2019-05-03T14:20:26.206Z,2.53
2019-05-03T14:22:55.195Z,2.50
2019-05-03T14:25:24.745Z,2.70
2019-05-03T14:27:55.005Z,2.90
2019-05-03T14:30:25.287Z,2.30
2019-05-03T14:32:55.709Z,2.20
2019-05-03T14:35:25.112Z,3.00
2019-05-03T14:37:55.051Z,3.10
2019-05-03T14:40:25.120Z,2.87
2019-05-03T14:42:55.517Z,2.80
2019-05-03T14:45:25.529Z,2.87
2019-05-03T14:47:57.421Z,2.63
2019-05-03T14:50:25.523Z,2.70
2019-05-03T14:52:56.953Z,2.87
2019-05-03T14:55:35.652Z,2.73
2019-05-03T14:58:06.409Z,2.93
2019-05-03T15:00:48.837Z,2.83
2019-05-03T15:03:24.627Z,2.90
2019-05-03T15:05:55.055Z,2.60
2019-05-03T15:08:25.636Z,2.77
2019-05-03T15:10:54.799Z,2.37
2019-05-03T15:13:25.491Z,2.70
2019-05-03T15:15:54.832Z,2.50
2019-05-03T15:18:25.593Z,2.70
2019-05-03T15:20:55.019Z,2.33
2019-05-03T15:23:25.518Z,2.37
2019-05-03T15:25:56.321Z,2.60
2019-05-03T15:28:27.059Z,2.40
2019-05-03T15:30:55.967Z,2.27
2019-05-03T15:33:24.803Z,2.70
2019-05-03T15:35:55.253Z,2.70
2019-05-03T15:38:24.243Z,2.37
2019-05-03T15:40:54.815Z,3.00
2019-05-03T15:43:34.808Z,2.87
2019-05-03T15:46:14.754Z,2.33
2019-05-03T15:48:45.799Z,2.80
2019-05-03T15:51:15.093Z,2.83
2019-05-03T15:53:44.429Z,2.57
2019-05-03T15:56:14.706Z,2.70
2019-05-03T15:58:46.690Z,2.50
2019-05-03T16:01:15.300Z,2.67
2019-05-03T16:03:47.695Z,2.50
2019-05-03T16:06:16.687Z,2.50
2019-05-03T16:08:45.798Z,2.80
2019-05-03T16:11:15.448Z,2.77
2019-05-03T16:13:44.955Z,2.80
2019-05-03T16:16:15.180Z,2.80
2019-05-03T16:18:47.142Z,2.57
2019-05-03T16:21:16.093Z,2.43
2019-05-03T16:23:46.756Z,2.73
2019-05-03T16:26:17.576Z,2.50
2019-05-03T16:28:55.247Z,2.80
2019-05-03T16:31:26.610Z,2.70
2019-05-03T16:33:56.013Z,2.73
2019-05-03T16:36:24.842Z,2.83
2019-05-03T16:38:55.424Z,2.90
2019-05-03T16:41:24.915Z,2.80
2019-05-03T16:43:53.999Z,2.67
2019-05-03T16:46:23.091Z,2.40
2019-05-03T16:48:52.121Z,2.80
2019-05-03T16:51:20.935Z,2.80
2019-05-03T16:53:49.811Z,2.90
2019-05-03T16:56:19.078Z,2.93
2019-05-03T16:58:47.880Z,2.50
2019-05-03T17:01:18.187Z,2.83
2019-05-03T17:03:48.818Z,2.90
2019-05-03T17:06:22.276Z,3.10
2019-05-03T17:09:09.144Z,3.00
2019-05-03T17:11:38.012Z,2.83
2019-05-03T17:14:06.879Z,3.00
2019-05-03T17:16:35.709Z,3.00
2019-05-03T17:19:05.846Z,3.20
2019-05-03T17:21:35.048Z,3.50
2019-05-03T17:24:04.395Z,2.90
2019-05-03T17:26:35.118Z,2.67
2019-05-03T17:29:04.642Z,2.90
2019-05-03T17:31:35.244Z,3.00
2019-05-03T17:34:05.561Z,2.63
2019-05-03T17:36:34.554Z,2.63
2019-05-03T17:39:04.961Z,3.20
2019-05-03T17:41:50.395Z,3.13
2019-05-03T17:44:26.795Z,2.37
2019-05-03T17:46:55.675Z,2.80
2019-05-03T17:49:24.545Z,3.77
2019-05-03T17:52:00.701Z,3.40
2019-05-03T17:54:33.343Z,2.30
2019-05-03T17:57:04.606Z,3.40
2019-05-03T17:59:35.181Z,2.70
2019-05-03T18:02:22.023Z,2.43
2019-05-03T18:04:55.554Z,2.60
2019-05-03T18:07:30.458Z,2.70
2019-05-03T18:10:00.964Z,2.30
2019-05-03T18:12:29.832Z,2.37
2019-05-03T18:14:58.739Z,2.80
2019-05-03T18:17:27.576Z,2.70
2019-05-03T18:19:57.192Z,2.40
2019-05-03T18:22:26.059Z,2.30
2019-05-03T18:24:55.059Z,2.20
2019-05-03T18:27:25.096Z,2.00
2019-05-03T18:29:55.398Z,2.07
2019-05-03T18:32:25.299Z,2.37
2019-05-03T18:34:54.644Z,2.67
2019-05-03T18:37:24.495Z,2.07
2019-05-03T18:39:54.669Z,1.80
2019-05-03T18:42:35.247Z,2.10
2019-05-03T18:45:23.414Z,1.93
2019-05-03T18:47:52.271Z,2.23
2019-05-03T18:50:21.143Z,2.40
2019-05-03T18:52:49.974Z,2.50
2019-05-03T18:55:18.919Z,3.00
2019-05-03T18:57:47.926Z,3.23
2019-05-03T19:00:18.284Z,2.30
2019-05-03T19:02:47.252Z,2.27
2019-05-03T19:05:17.693Z,2.50
2019-05-03T19:07:51.184Z,2.87
2019-05-03T19:10:30.420Z,2.50
2019-05-03T19:13:00.876Z,2.67
2019-05-03T19:15:31.307Z,2.87
2019-05-03T19:18:04.892Z,2.50
2019-05-03T19:20:35.222Z,2.67
2019-05-03T19:23:04.994Z,2.60
2019-05-03T19:25:45.931Z,2.77
2019-05-03T19:28:07.866Z,2.80
2019-05-03T19:30:36.548Z,2.97
2019-05-03T19:33:05.411Z,2.90
2019-05-03T19:35:36.344Z,3.47
2019-05-03T19:38:04.943Z,3.57
2019-05-03T19:40:35.056Z,3.30
2019-05-03T19:43:05.269Z,3.50
2019-05-03T19:45:35.289Z,3.50
2019-05-03T19:48:04.847Z,3.80
2019-05-03T19:50:35.297Z,3.80
2019-05-03T19:53:06.006Z,3.87
2019-05-03T19:55:34.830Z,3.80
2019-05-03T19:58:05.495Z,4.00
2019-05-03T20:00:44.571Z,4.00
2019-05-03T20:03:15.456Z,3.97
2019-05-03T20:05:51.938Z,4.37
2019-05-03T20:08:22.371Z,3.57
2019-05-03T20:10:54.558Z,3.60
2019-05-03T20:13:32.692Z,3.27
2019-05-03T20:15:55.562Z,3.70
2019-05-03T20:18:25.807Z,3.00
2019-05-03T20:20:55.287Z,3.70
2019-05-03T20:23:25.098Z,4.37
2019-05-03T20:25:54.652Z,4.10
2019-05-03T20:28:24.723Z,3.73
2019-05-03T20:30:54.532Z,3.53
2019-05-03T20:33:24.594Z,3.33
2019-05-03T20:35:56.144Z,3.73
2019-05-03T20:38:24.593Z,3.20
2019-05-03T20:40:57.134Z,3.63
2019-05-03T20:43:41.041Z,4.13
2019-05-03T20:46:11.470Z,3.90
2019-05-03T20:48:49.353Z,4.03
2019-05-03T20:51:18.214Z,4.00
2019-05-03T20:53:52.393Z,4.10
2019-05-03T20:56:21.263Z,3.67
2019-05-03T20:58:50.088Z,4.13
2019-05-03T21:01:18.951Z,4.00
2019-05-03T21:03:47.771Z,4.10
2019-05-03T21:06:16.635Z,4.20
2019-05-03T21:08:52.964Z,4.13
2019-05-03T21:11:15.975Z,4.63
2019-05-03T21:13:45.057Z,3.70
2019-05-03T21:16:15.567Z,4.13
2019-05-03T21:18:48.942Z,4.00
2019-05-03T21:21:19.397Z,3.73
2019-05-03T21:23:55.867Z,4.57
2019-05-03T21:26:25.426Z,3.90
2019-05-03T21:28:55.360Z,4.27
2019-05-03T21:31:24.651Z,3.83
2019-05-03T21:33:55.267Z,3.90
2019-05-03T21:36:25.512Z,3.60
2019-05-03T21:38:54.851Z,4.27
2019-05-03T21:41:24.578Z,3.63
2019-05-03T21:43:54.519Z,3.70
2019-05-03T21:46:25.543Z,4.03
2019-05-03T21:48:59.004Z,3.70
2019-05-03T21:51:28.037Z,3.70
2019-05-03T21:53:56.955Z,3.50
2019-05-03T21:56:25.818Z,3.53
2019-05-03T21:58:55.339Z,3.90
2019-05-03T22:01:25.854Z,3.57
2019-05-03T22:03:54.959Z,4.13
2019-05-03T22:06:24.640Z,3.53
2019-05-03T22:08:55.360Z,4.13
2019-05-03T22:11:25.191Z,3.80
2019-05-03T22:13:57.061Z,3.43
2019-05-03T22:16:46.174Z,3.90
2019-05-03T22:19:17.937Z,4.07
2019-05-03T22:21:49.568Z,3.70
2019-05-03T22:24:20.795Z,4.00
2019-05-03T22:27:04.880Z,4.10
2019-05-03T22:29:35.461Z,3.80
2019-05-03T22:32:05.293Z,3.80
2019-05-03T22:34:34.842Z,3.70
2019-05-03T22:37:04.546Z,4.27
2019-05-03T22:39:33.411Z,3.80
2019-05-03T22:42:04.357Z,3.80
2019-05-03T22:44:32.745Z,4.50
2019-05-03T22:47:01.603Z,3.60
2019-05-03T22:49:30.427Z,4.27
2019-05-03T22:51:59.282Z,3.80
2019-05-03T22:54:28.767Z,4.10
2019-05-03T22:56:57.601Z,3.67
2019-05-03T22:59:26.461Z,3.60
2019-05-03T23:01:55.327Z,3.73
2019-05-03T23:04:25.328Z,3.53
2019-05-03T23:06:55.476Z,4.23
2019-05-03T23:09:25.008Z,4.33
2019-05-03T23:11:55.212Z,4.00
2019-05-03T23:14:25.445Z,4.10
2019-05-03T23:16:54.663Z,3.63
2019-05-03T23:19:23.482Z,3.40
2019-05-03T23:21:54.469Z,3.33
2019-05-03T23:24:24.949Z,3.90
2019-05-03T23:26:53.763Z,4.10
2019-05-03T23:29:22.632Z,4.20
2019-05-03T23:31:51.487Z,4.13
2019-05-03T23:34:20.310Z,4.07
2019-05-03T23:36:49.175Z,3.93
2019-05-03T23:39:18.037Z,4.20
2019-05-03T23:41:46.863Z,4.60
2019-05-03T23:44:15.726Z,3.87
2019-05-03T23:46:55.374Z,4.23
2019-05-03T23:49:25.013Z,3.70
2019-05-03T23:51:55.556Z,3.90
2019-05-03T23:54:24.791Z,4.10
2019-05-03T23:56:54.786Z,4.47
2019-05-03T23:59:23.702Z,3.87
